createdAt,value
2023-02-17T00:03:57.527Z,10.57
2023-02-17T00:08:04.299Z,8.77
2023-02-17T00:12:11.052Z,10.73
2023-02-17T00:16:20.686Z,9.95
2023-02-17T00:20:30.056Z,10.73
2023-02-17T00:24:40.790Z,10.82
2023-02-17T00:28:48.637Z,11.45
2023-02-17T00:32:55.346Z,11.45
2023-02-17T00:37:02.392Z,12.13
2023-02-17T00:41:09.480Z,11.95
2023-02-17T00:45:16.466Z,13.07
2023-02-17T00:49:25.931Z,13.30
2023-02-17T00:53:32.760Z,12.93
2023-02-17T00:57:39.470Z,12.77
2023-02-17T01:01:46.520Z,13.43
2023-02-17T01:05:54.789Z,14.05
2023-02-17T01:10:01.494Z,13.05
2023-02-17T01:14:08.325Z,13.23
2023-02-17T01:18:15.500Z,12.18
2023-02-17T01:22:22.180Z,12.93
2023-02-17T01:26:30.692Z,11.93
2023-02-17T01:30:37.618Z,11.45
2023-02-17T01:34:44.314Z,11.55
2023-02-17T01:38:51.284Z,12.63
2023-02-17T01:42:57.998Z,10.70
2023-02-17T01:47:04.692Z,11.65
2023-02-17T01:51:21.781Z,11.90
2023-02-17T01:55:29.295Z,11.23
2023-02-17T01:59:36.414Z,11.88
2023-02-17T02:03:43.977Z,11.55
2023-02-17T02:07:51.443Z,12.23
2023-02-17T02:12:00.012Z,12.43
2023-02-17T02:16:18.935Z,13.07
2023-02-17T02:20:45.741Z,13.25
2023-02-17T02:25:14.134Z,16.33
2023-02-17T02:29:52.386Z,14.65
2023-02-17T02:34:46.033Z,15.48
2023-02-17T02:39:01.677Z,14.55
2023-02-17T02:43:08.576Z,15.77
2023-02-17T02:47:54.997Z,14.98
2023-02-17T02:52:04.700Z,15.88
2023-02-17T02:56:48.859Z,15.80
2023-02-17T03:01:14.054Z,15.63
2023-02-17T03:05:36.121Z,15.02
2023-02-17T03:09:42.941Z,13.07
2023-02-17T03:13:49.611Z,12.75
2023-02-17T03:17:58.177Z,12.75
2023-02-17T03:22:22.779Z,12.40
2023-02-17T03:26:29.456Z,13.25
2023-02-17T03:30:36.739Z,13.50
2023-02-17T03:34:43.410Z,13.68
2023-02-17T03:38:50.172Z,13.50
2023-02-17T03:42:57.767Z,12.50
2023-02-17T03:47:04.434Z,12.05
2023-02-17T03:51:19.881Z,12.20
2023-02-17T03:55:26.555Z,11.95
2023-02-17T03:59:33.293Z,11.50
2023-02-17T04:03:40.973Z,12.10
2023-02-17T04:07:47.935Z,11.23
2023-02-17T04:11:54.604Z,11.00
2023-02-17T04:16:04.196Z,10.27
2023-02-17T04:20:11.683Z,10.45
2023-02-17T04:24:18.498Z,9.88
2023-02-17T04:28:26.277Z,10.27
2023-02-17T04:32:32.980Z,10.60
2023-02-17T04:36:39.714Z,11.07
2023-02-17T04:40:46.424Z,9.70
2023-02-17T04:44:53.106Z,9.70
2023-02-17T04:48:59.787Z,9.02
2023-02-17T04:53:06.924Z,10.07
2023-02-17T04:57:13.633Z,9.93
2023-02-17T05:01:20.349Z,9.77
2023-02-17T05:05:27.421Z,8.27
2023-02-17T05:09:34.115Z,9.13
2023-02-17T05:13:40.970Z,9.82
2023-02-17T05:17:47.683Z,10.38
2023-02-17T05:21:54.488Z,8.52
2023-02-17T05:26:01.147Z,8.52
2023-02-17T05:30:08.240Z,8.20
2023-02-17T05:34:14.963Z,7.47
2023-02-17T05:38:21.648Z,8.57
2023-02-17T05:42:28.973Z,8.73
2023-02-17T05:46:35.792Z,9.80
2023-02-17T05:50:42.560Z,10.38
2023-02-17T05:54:49.321Z,9.55
2023-02-17T05:58:56.016Z,10.40
2023-02-17T06:03:02.788Z,10.60
2023-02-17T06:07:09.485Z,9.30
2023-02-17T06:11:16.182Z,8.60
2023-02-17T06:15:23.006Z,9.85
2023-02-17T06:19:30.015Z,10.25
2023-02-17T06:23:36.710Z,10.35
2023-02-17T06:27:44.287Z,9.25
2023-02-17T06:31:51.027Z,9.70
2023-02-17T06:35:57.915Z,9.13
2023-02-17T06:40:05.491Z,9.20
2023-02-17T06:44:12.177Z,9.20
2023-02-17T06:48:18.944Z,9.60
2023-02-17T06:52:25.709Z,8.77
2023-02-17T06:56:32.394Z,9.85
2023-02-17T07:00:39.080Z,8.38
2023-02-17T07:04:45.778Z,9.70
2023-02-17T07:08:53.289Z,9.70
2023-02-17T07:13:00.201Z,9.00
2023-02-17T07:17:06.922Z,9.02
2023-02-17T07:21:13.607Z,11.32
2023-02-17T07:25:20.310Z,9.50
2023-02-17T07:29:27.561Z,9.50
2023-02-17T07:33:34.944Z,9.43
2023-02-17T07:37:41.619Z,9.35
2023-02-17T07:41:48.290Z,9.80
2023-02-17T07:45:56.660Z,8.70
2023-02-17T07:50:05.650Z,9.60
2023-02-17T07:54:13.342Z,8.70
2023-02-17T07:58:20.021Z,8.18
2023-02-17T08:02:27.071Z,7.68
2023-02-17T08:06:33.757Z,8.88
2023-02-17T08:10:59.466Z,8.00
2023-02-17T08:15:08.755Z,7.68
2023-02-17T08:19:15.503Z,6.75
2023-02-17T08:23:22.501Z,7.30
2023-02-17T08:27:29.192Z,7.25
2023-02-17T08:31:37.285Z,5.80
2023-02-17T08:35:45.307Z,5.95
2023-02-17T08:39:52.117Z,6.50
2023-02-17T08:44:00.818Z,6.70
2023-02-17T08:48:07.620Z,5.95
2023-02-17T08:52:14.326Z,6.40
2023-02-17T08:56:22.039Z,5.90
2023-02-17T09:00:28.902Z,5.82
2023-02-17T09:04:35.624Z,6.30
2023-02-17T09:08:44.389Z,5.50
2023-02-17T09:12:51.918Z,5.90
2023-02-17T09:16:58.698Z,5.93
2023-02-17T09:21:10.886Z,5.68
2023-02-17T09:25:17.665Z,5.03
2023-02-17T09:29:24.361Z,6.38
2023-02-17T09:33:31.131Z,5.32
2023-02-17T09:37:37.797Z,5.18
2023-02-17T09:41:48.302Z,4.03
2023-02-17T09:46:02.392Z,4.43
2023-02-17T09:50:34.825Z,5.00
2023-02-17T09:54:46.724Z,3.45
2023-02-17T09:58:58.659Z,3.50
2023-02-17T10:03:10.809Z,3.42
2023-02-17T10:07:25.226Z,3.42
2023-02-17T10:11:35.379Z,3.60
2023-02-17T10:15:48.537Z,2.65
2023-02-17T10:20:03.464Z,2.67
2023-02-17T10:24:10.341Z,2.60
2023-02-17T10:28:46.704Z,2.67
2023-02-17T10:32:53.417Z,2.78
2023-02-17T10:37:25.134Z,2.88
2023-02-17T10:41:38.331Z,3.27
2023-02-17T10:45:50.055Z,2.42
2023-02-17T10:49:58.165Z,2.28
2023-02-17T10:54:16.474Z,3.38
2023-02-17T10:58:47.129Z,2.55
2023-02-17T11:02:54.310Z,2.72
2023-02-17T11:07:03.204Z,1.42
2023-02-17T11:11:18.858Z,2.55
2023-02-17T11:15:43.306Z,2.40
2023-02-17T11:20:04.498Z,2.17
2023-02-17T11:24:11.815Z,2.22
2023-02-17T11:28:24.099Z,2.25
2023-02-17T11:32:32.779Z,2.03
2023-02-17T11:36:39.491Z,1.95
2023-02-17T11:41:00.614Z,2.30
2023-02-17T11:45:23.055Z,3.08
2023-02-17T11:54:23.031Z,3.03
2023-02-17T11:58:56.527Z,2.45
2023-02-17T12:03:47.344Z,3.47
2023-02-17T12:08:15.642Z,3.30
2023-02-17T12:12:42.596Z,3.15
2023-02-17T12:17:05.879Z,3.10
2023-02-17T12:21:30.347Z,3.90
2023-02-17T12:25:52.193Z,4.38
2023-02-17T12:30:23.624Z,3.30
2023-02-17T12:34:47.618Z,3.70
2023-02-17T12:39:01.557Z,3.90
2023-02-17T12:43:25.066Z,4.60
2023-02-17T12:47:55.289Z,4.07
2023-02-17T12:52:11.119Z,5.00
2023-02-17T12:56:31.268Z,4.35
2023-02-17T13:00:40.820Z,3.50
2023-02-17T13:05:17.998Z,3.28
2023-02-17T13:09:28.915Z,2.72
2023-02-17T13:13:35.768Z,2.85
2023-02-17T13:18:06.640Z,2.30
2023-02-17T13:22:22.728Z,2.97
2023-02-17T13:26:32.669Z,2.35
2023-02-17T13:30:45.216Z,2.40
2023-02-17T13:35:05.897Z,3.42
2023-02-17T13:39:27.793Z,2.58
2023-02-17T13:43:42.319Z,2.72
2023-02-17T13:47:51.405Z,2.80
2023-02-17T13:52:08.151Z,2.92
2023-02-17T13:56:29.675Z,3.45
2023-02-17T14:00:36.334Z,3.30
2023-02-17T14:04:43.598Z,3.10
2023-02-17T14:08:50.316Z,3.47
2023-02-17T14:12:57.949Z,3.33
2023-02-17T14:17:13.266Z,2.67
2023-02-17T14:21:26.772Z,3.28
2023-02-17T14:25:37.498Z,3.28
2023-02-17T14:29:47.160Z,3.53
2023-02-17T14:34:01.990Z,2.67
2023-02-17T14:38:20.117Z,2.50
2023-02-17T14:42:26.767Z,3.08
2023-02-17T14:46:34.510Z,2.03
2023-02-17T14:50:45.003Z,3.10
2023-02-17T14:54:52.172Z,1.88
2023-02-17T14:58:59.021Z,2.45
2023-02-17T15:03:05.715Z,3.22
2023-02-17T15:07:15.145Z,2.95
2023-02-17T15:11:32.049Z,2.47
2023-02-17T15:15:40.555Z,2.58
2023-02-17T15:19:47.205Z,3.15
2023-02-17T15:23:55.426Z,2.63
2023-02-17T15:28:02.123Z,2.35
2023-02-17T15:32:20.273Z,2.28
2023-02-17T15:36:28.548Z,6.97
2023-02-17T15:40:35.349Z,2.45
2023-02-17T15:44:48.812Z,3.33
2023-02-17T15:48:55.659Z,2.58
2023-02-17T15:53:02.795Z,3.25
2023-02-17T15:57:22.116Z,3.08
2023-02-17T16:01:32.485Z,3.13
2023-02-17T16:05:40.262Z,2.88
2023-02-17T16:09:46.984Z,2.67
2023-02-17T16:13:53.857Z,2.75
2023-02-17T16:18:00.708Z,4.00
2023-02-17T16:22:07.660Z,3.15
2023-02-17T16:26:25.721Z,3.40
2023-02-17T16:30:35.992Z,2.75
2023-02-17T16:34:42.874Z,2.85
2023-02-17T16:38:53.035Z,3.65
2023-02-17T16:43:01.119Z,3.22
2023-02-17T16:47:18.887Z,3.20
2023-02-17T16:51:26.144Z,3.67
2023-02-17T16:55:35.706Z,4.15
2023-02-17T16:59:42.397Z,4.60
2023-02-17T17:03:49.077Z,4.05
2023-02-17T17:07:56.167Z,4.03
2023-02-17T17:12:02.866Z,5.55
2023-02-17T17:16:15.712Z,4.85
2023-02-17T17:20:30.889Z,4.45
2023-02-17T17:24:37.750Z,4.65
2023-02-17T17:28:44.562Z,5.13
2023-02-17T17:32:51.633Z,5.30
2023-02-17T17:36:59.651Z,6.57
2023-02-17T17:41:06.375Z,6.95
2023-02-17T17:45:14.390Z,6.57
2023-02-17T17:49:21.189Z,8.30
2023-02-17T17:53:27.880Z,8.15
2023-02-17T17:57:34.631Z,9.30
2023-02-17T18:01:43.241Z,10.90
2023-02-17T18:05:51.375Z,9.52
2023-02-17T18:09:58.567Z,9.85
2023-02-17T18:14:11.460Z,6.43
2023-02-17T18:18:20.216Z,5.50
2023-02-17T18:22:27.022Z,6.22
2023-02-17T18:26:34.210Z,7.85
2023-02-17T18:30:40.955Z,8.00
2023-02-17T18:34:48.228Z,9.63
2023-02-17T18:38:55.108Z,7.80
2023-02-17T18:43:01.828Z,9.13
2023-02-17T18:47:08.576Z,8.80
2023-02-17T18:51:17.340Z,9.85
2023-02-17T18:55:24.013Z,7.70
2023-02-17T18:59:32.426Z,9.90
2023-02-17T19:03:39.091Z,8.68
2023-02-17T19:07:45.959Z,9.05
2023-02-17T19:11:52.670Z,8.63
2023-02-17T19:16:17.734Z,8.60
2023-02-17T19:20:28.460Z,8.75
2023-02-17T19:24:39.434Z,7.32
2023-02-17T19:28:46.622Z,8.52
2023-02-17T19:32:53.328Z,9.07
2023-02-17T19:37:00.157Z,7.43
2023-02-17T19:41:09.077Z,7.82
2023-02-17T19:45:15.794Z,8.90
2023-02-17T19:49:22.497Z,9.90
2023-02-17T19:53:31.245Z,9.50
2023-02-17T19:57:38.337Z,9.35
2023-02-17T20:01:45.328Z,11.13
2023-02-17T20:05:52.048Z,8.75
2023-02-17T20:09:58.791Z,8.77
2023-02-17T20:14:06.134Z,8.70
2023-02-17T20:18:13.969Z,8.93
2023-02-17T20:22:21.323Z,8.75
2023-02-17T20:26:30.930Z,7.30
2023-02-17T20:30:37.767Z,8.43
2023-02-17T20:34:44.506Z,8.30
2023-02-17T20:38:51.281Z,7.45
2023-02-17T20:42:58.907Z,7.13
2023-02-17T20:47:05.788Z,7.47
2023-02-17T20:51:12.464Z,7.22
2023-02-17T20:55:19.720Z,6.28
2023-02-17T20:59:26.795Z,7.43
2023-02-17T21:03:33.492Z,6.70
2023-02-17T21:07:40.334Z,7.13
2023-02-17T21:11:47.102Z,8.45
2023-02-17T21:15:53.823Z,10.57
2023-02-17T21:20:00.547Z,9.27
2023-02-17T21:24:07.358Z,11.43
2023-02-17T21:28:15.822Z,11.98
2023-02-17T21:32:26.654Z,11.30
2023-02-17T21:36:33.402Z,10.75
2023-02-17T21:40:40.091Z,11.73
2023-02-17T21:44:52.497Z,12.50
2023-02-17T21:53:06.760Z,11.73
2023-02-17T21:57:13.426Z,11.68
2023-02-17T22:01:21.321Z,12.73
2023-02-17T22:05:31.635Z,13.32
2023-02-17T22:09:38.321Z,12.98
2023-02-17T22:13:46.924Z,12.82
2023-02-17T22:17:53.733Z,12.60
2023-02-17T22:22:00.379Z,12.25
2023-02-17T22:26:16.006Z,11.48
2023-02-17T22:30:24.417Z,11.02
2023-02-17T22:34:31.226Z,11.45
2023-02-17T22:38:38.010Z,12.05
2023-02-17T22:42:44.736Z,11.95
2023-02-17T22:46:51.416Z,12.93
2023-02-17T22:50:58.302Z,11.98
2023-02-17T22:55:05.359Z,11.77
2023-02-17T22:59:12.034Z,14.13
2023-02-17T23:03:18.805Z,13.52
2023-02-17T23:07:25.519Z,14.82
2023-02-17T23:11:50.535Z,16.90
2023-02-17T23:15:57.235Z,18.98
2023-02-17T23:20:04.125Z,21.50
2023-02-17T23:24:11.090Z,24.10
2023-02-17T23:28:19.451Z,24.52
2023-02-17T23:32:26.137Z,24.20
2023-02-17T23:36:32.916Z,23.15
2023-02-17T23:40:40.037Z,22.52
2023-02-17T23:44:46.691Z,22.55
2023-02-17T23:48:53.340Z,22.38
2023-02-17T23:53:00.030Z,22.58
2023-02-17T23:57:06.816Z,21.95
